sensor_id;sensor_type;location;lat;lon;timestamp;P1;durP1;ratioP1;P2;durP2;ratioP2
3355;SDS011;1691;52.486;13.374;2024-03-07T00:01:35;119.07;;;39.50;;
3355;SDS011;1691;52.486;13.374;2024-03-07T00:04:03;133.03;;;39.90;;
3355;SDS011;1691;52.486;13.374;2024-03-07T00:06:30;121.83;;;38.87;;
3355;SDS011;1691;52.486;13.374;2024-03-07T00:08:57;138.83;;;37.90;;
3355;SDS011;1691;52.486;13.374;2024-03-07T00:11:24;133.90;;;42.17;;
3355;SDS011;1691;52.486;13.374;2024-03-07T00:13:52;122.70;;;40.20;;
3355;SDS011;1691;52.486;13.374;2024-03-07T00:16:19;116.53;;;37.83;;
3355;SDS011;1691;52.486;13.374;2024-03-07T00:18:46;127.60;;;41.10;;
3355;SDS011;1691;52.486;13.374;2024-03-07T00:21:14;144.57;;;41.67;;
3355;SDS011;1691;52.486;13.374;2024-03-07T00:23:41;128.17;;;39.80;;
3355;SDS011;1691;52.486;13.374;2024-03-07T00:26:08;139.60;;;38.20;;
3355;SDS011;1691;52.486;13.374;2024-03-07T00:28:35;131.13;;;40.50;;
3355;SDS011;1691;52.486;13.374;2024-03-07T00:31:05;137.87;;;40.80;;
3355;SDS011;1691;52.486;13.374;2024-03-07T00:33:33;116.13;;;38.57;;
3355;SDS011;1691;52.486;13.374;2024-03-07T00:36:20;128.07;;;40.67;;
3355;SDS011;1691;52.486;13.374;2024-03-07T00:38:48;115.50;;;38.37;;
3355;SDS011;1691;52.486;13.374;2024-03-07T00:41:15;123.77;;;39.30;;
3355;SDS011;1691;52.486;13.374;2024-03-07T00:43:43;146.70;;;41.40;;
3355;SDS011;1691;52.486;13.374;2024-03-07T00:46:10;136.93;;;40.57;;
3355;SDS011;1691;52.486;13.374;2024-03-07T00:48:37;119.83;;;36.90;;
3355;SDS011;1691;52.486;13.374;2024-03-07T00:51:04;105.77;;;34.90;;
3355;SDS011;1691;52.486;13.374;2024-03-07T00:53:31;122.37;;;38.87;;
3355;SDS011;1691;52.486;13.374;2024-03-07T00:55:58;139.00;;;38.97;;
3355;SDS011;1691;52.486;13.374;2024-03-07T00:58:25;100.07;;;36.50;;
3355;SDS011;1691;52.486;13.374;2024-03-07T01:00:54;112.30;;;37.57;;
3355;SDS011;1691;52.486;13.374;2024-03-07T01:03:22;136.67;;;36.87;;
3355;SDS011;1691;52.486;13.374;2024-03-07T01:05:50;115.23;;;35.47;;
3355;SDS011;1691;52.486;13.374;2024-03-07T01:08:17;126.87;;;37.77;;
3355;SDS011;1691;52.486;13.374;2024-03-07T01:10:44;119.93;;;38.63;;
3355;SDS011;1691;52.486;13.374;2024-03-07T01:13:11;126.93;;;38.97;;
3355;SDS011;1691;52.486;13.374;2024-03-07T01:15:45;120.37;;;38.53;;
3355;SDS011;1691;52.486;13.374;2024-03-07T01:18:12;117.50;;;39.17;;
3355;SDS011;1691;52.486;13.374;2024-03-07T01:20:39;147.43;;;36.70;;
3355;SDS011;1691;52.486;13.374;2024-03-07T01:23:06;101.33;;;35.70;;
3355;SDS011;1691;52.486;13.374;2024-03-07T01:25:37;126.17;;;38.20;;
3355;SDS011;1691;52.486;13.374;2024-03-07T01:28:05;101.80;;;35.77;;
3355;SDS011;1691;52.486;13.374;2024-03-07T01:30:32;112.20;;;36.83;;
3355;SDS011;1691;52.486;13.374;2024-03-07T01:32:59;99.63;;;35.17;;
3355;SDS011;1691;52.486;13.374;2024-03-07T01:35:27;102.90;;;33.07;;
3355;SDS011;1691;52.486;13.374;2024-03-07T01:37:54;107.77;;;35.40;;
3355;SDS011;1691;52.486;13.374;2024-03-07T01:40:21;99.03;;;35.47;;
3355;SDS011;1691;52.486;13.374;2024-03-07T01:42:49;103.43;;;34.30;;
3355;SDS011;1691;52.486;13.374;2024-03-07T01:45:16;108.10;;;34.20;;
3355;SDS011;1691;52.486;13.374;2024-03-07T01:47:44;102.77;;;35.53;;
3355;SDS011;1691;52.486;13.374;2024-03-07T01:50:12;131.57;;;36.93;;
3355;SDS011;1691;52.486;13.374;2024-03-07T01:52:39;101.97;;;32.57;;
3355;SDS011;1691;52.486;13.374;2024-03-07T01:55:07;79.20;;;34.37;;
3355;SDS011;1691;52.486;13.374;2024-03-07T01:57:37;102.10;;;33.77;;
3355;SDS011;1691;52.486;13.374;2024-03-07T02:00:05;88.77;;;31.97;;
3355;SDS011;1691;52.486;13.374;2024-03-07T02:02:34;112.13;;;34.70;;
3355;SDS011;1691;52.486;13.374;2024-03-07T02:05:01;89.10;;;31.20;;
3355;SDS011;1691;52.486;13.374;2024-03-07T02:07:28;100.47;;;33.20;;
3355;SDS011;1691;52.486;13.374;2024-03-07T02:10:05;106.00;;;34.03;;
3355;SDS011;1691;52.486;13.374;2024-03-07T02:12:33;89.37;;;30.93;;
3355;SDS011;1691;52.486;13.374;2024-03-07T02:15:00;95.53;;;31.07;;
3355;SDS011;1691;52.486;13.374;2024-03-07T02:17:27;92.57;;;34.03;;
3355;SDS011;1691;52.486;13.374;2024-03-07T02:19:55;107.87;;;32.47;;
3355;SDS011;1691;52.486;13.374;2024-03-07T02:22:22;85.60;;;32.67;;
3355;SDS011;1691;52.486;13.374;2024-03-07T02:24:50;100.10;;;34.30;;
3355;SDS011;1691;52.486;13.374;2024-03-07T02:27:17;104.13;;;34.07;;
3355;SDS011;1691;52.486;13.374;2024-03-07T02:29:45;103.63;;;35.40;;
3355;SDS011;1691;52.486;13.374;2024-03-07T02:32:13;101.83;;;34.90;;
3355;SDS011;1691;52.486;13.374;2024-03-07T02:34:40;98.60;;;37.00;;
3355;SDS011;1691;52.486;13.374;2024-03-07T02:37:07;87.27;;;33.73;;
3355;SDS011;1691;52.486;13.374;2024-03-07T02:39:36;92.17;;;35.60;;
3355;SDS011;1691;52.486;13.374;2024-03-07T02:42:03;107.73;;;34.40;;
3355;SDS011;1691;52.486;13.374;2024-03-07T02:44:30;97.10;;;34.90;;
3355;SDS011;1691;52.486;13.374;2024-03-07T02:46:58;97.93;;;35.90;;
3355;SDS011;1691;52.486;13.374;2024-03-07T02:49:25;112.40;;;37.37;;
3355;SDS011;1691;52.486;13.374;2024-03-07T02:51:52;110.67;;;34.80;;
3355;SDS011;1691;52.486;13.374;2024-03-07T02:54:19;118.67;;;35.33;;
3355;SDS011;1691;52.486;13.374;2024-03-07T02:56:46;101.80;;;35.57;;
3355;SDS011;1691;52.486;13.374;2024-03-07T02:59:13;83.50;;;33.90;;
3355;SDS011;1691;52.486;13.374;2024-03-07T03:01:40;88.63;;;35.73;;
3355;SDS011;1691;52.486;13.374;2024-03-07T03:04:08;100.30;;;34.37;;
3355;SDS011;1691;52.486;13.374;2024-03-07T03:06:35;104.10;;;34.60;;
3355;SDS011;1691;52.486;13.374;2024-03-07T03:09:02;124.13;;;37.80;;
3355;SDS011;1691;52.486;13.374;2024-03-07T03:11:31;105.37;;;38.53;;
3355;SDS011;1691;52.486;13.374;2024-03-07T03:13:58;118.67;;;36.80;;
3355;SDS011;1691;52.486;13.374;2024-03-07T03:16:25;110.90;;;40.73;;
3355;SDS011;1691;52.486;13.374;2024-03-07T03:19:12;108.90;;;39.10;;
3355;SDS011;1691;52.486;13.374;2024-03-07T03:21:39;103.40;;;37.67;;
3355;SDS011;1691;52.486;13.374;2024-03-07T03:24:07;129.50;;;40.40;;
3355;SDS011;1691;52.486;13.374;2024-03-07T03:26:34;123.23;;;38.77;;
3355;SDS011;1691;52.486;13.374;2024-03-07T03:29:01;101.27;;;37.40;;
3355;SDS011;1691;52.486;13.374;2024-03-07T03:31:29;111.77;;;35.37;;
3355;SDS011;1691;52.486;13.374;2024-03-07T03:33:56;98.93;;;37.10;;
3355;SDS011;1691;52.486;13.374;2024-03-07T03:36:23;104.73;;;38.60;;
3355;SDS011;1691;52.486;13.374;2024-03-07T03:38:51;113.07;;;36.47;;
3355;SDS011;1691;52.486;13.374;2024-03-07T03:41:18;89.50;;;33.60;;
3355;SDS011;1691;52.486;13.374;2024-03-07T03:43:46;101.23;;;37.73;;
3355;SDS011;1691;52.486;13.374;2024-03-07T03:46:13;84.27;;;34.40;;
3355;SDS011;1691;52.486;13.374;2024-03-07T03:48:41;89.60;;;33.50;;
3355;SDS011;1691;52.486;13.374;2024-03-07T03:51:08;93.47;;;33.70;;
3355;SDS011;1691;52.486;13.374;2024-03-07T03:53:36;85.20;;;34.53;;
3355;SDS011;1691;52.486;13.374;2024-03-07T03:56:03;93.07;;;36.63;;
3355;SDS011;1691;52.486;13.374;2024-03-07T03:58:32;81.50;;;34.00;;
3355;SDS011;1691;52.486;13.374;2024-03-07T04:01:00;84.93;;;36.47;;
3355;SDS011;1691;52.486;13.374;2024-03-07T04:03:27;86.77;;;33.83;;
3355;SDS011;1691;52.486;13.374;2024-03-07T04:05:54;97.30;;;34.57;;
3355;SDS011;1691;52.486;13.374;2024-03-07T04:08:22;87.13;;;33.97;;
3355;SDS011;1691;52.486;13.374;2024-03-07T04:10:49;86.33;;;35.50;;
3355;SDS011;1691;52.486;13.374;2024-03-07T04:13:16;69.43;;;30.93;;
3355;SDS011;1691;52.486;13.374;2024-03-07T04:15:43;71.43;;;33.80;;
3355;SDS011;1691;52.486;13.374;2024-03-07T04:18:10;79.23;;;33.00;;
3355;SDS011;1691;52.486;13.374;2024-03-07T04:20:38;77.10;;;32.50;;
3355;SDS011;1691;52.486;13.374;2024-03-07T04:23:05;67.97;;;32.20;;
3355;SDS011;1691;52.486;13.374;2024-03-07T04:25:37;88.23;;;32.23;;
3355;SDS011;1691;52.486;13.374;2024-03-07T04:28:04;69.23;;;30.37;;
3355;SDS011;1691;52.486;13.374;2024-03-07T04:30:31;77.13;;;32.43;;
3355;SDS011;1691;52.486;13.374;2024-03-07T04:32:58;81.03;;;31.77;;
3355;SDS011;1691;52.486;13.374;2024-03-07T04:35:26;63.23;;;30.57;;
3355;SDS011;1691;52.486;13.374;2024-03-07T04:37:53;74.30;;;30.33;;
3355;SDS011;1691;52.486;13.374;2024-03-07T04:40:21;57.57;;;31.40;;
3355;SDS011;1691;52.486;13.374;2024-03-07T04:42:49;67.13;;;31.20;;
3355;SDS011;1691;52.486;13.374;2024-03-07T04:45:16;69.70;;;31.50;;
3355;SDS011;1691;52.486;13.374;2024-03-07T04:47:44;71.37;;;30.90;;
3355;SDS011;1691;52.486;13.374;2024-03-07T04:50:13;75.13;;;32.43;;
3355;SDS011;1691;52.486;13.374;2024-03-07T04:52:45;74.37;;;32.77;;
3355;SDS011;1691;52.486;13.374;2024-03-07T04:55:14;64.63;;;30.70;;
3355;SDS011;1691;52.486;13.374;2024-03-07T04:57:41;65.17;;;30.47;;
3355;SDS011;1691;52.486;13.374;2024-03-07T05:00:08;59.53;;;31.37;;
3355;SDS011;1691;52.486;13.374;2024-03-07T05:02:43;58.73;;;29.47;;
3355;SDS011;1691;52.486;13.374;2024-03-07T05:05:13;67.33;;;30.83;;
3355;SDS011;1691;52.486;13.374;2024-03-07T05:07:40;73.53;;;31.40;;
3355;SDS011;1691;52.486;13.374;2024-03-07T05:10:08;71.90;;;30.37;;
3355;SDS011;1691;52.486;13.374;2024-03-07T05:12:36;75.27;;;32.23;;
3355;SDS011;1691;52.486;13.374;2024-03-07T05:15:04;71.17;;;31.20;;
3355;SDS011;1691;52.486;13.374;2024-03-07T05:17:32;71.97;;;30.50;;
3355;SDS011;1691;52.486;13.374;2024-03-07T05:20:01;71.23;;;31.40;;
3355;SDS011;1691;52.486;13.374;2024-03-07T05:22:29;74.10;;;31.47;;
3355;SDS011;1691;52.486;13.374;2024-03-07T05:24:57;67.77;;;30.43;;
3355;SDS011;1691;52.486;13.374;2024-03-07T05:27:25;68.07;;;29.70;;
3355;SDS011;1691;52.486;13.374;2024-03-07T05:29:54;81.17;;;31.67;;
3355;SDS011;1691;52.486;13.374;2024-03-07T05:32:22;68.00;;;31.33;;
3355;SDS011;1691;52.486;13.374;2024-03-07T05:34:54;73.57;;;29.50;;
3355;SDS011;1691;52.486;13.374;2024-03-07T05:37:22;70.13;;;30.17;;
3355;SDS011;1691;52.486;13.374;2024-03-07T05:39:52;61.20;;;30.57;;
3355;SDS011;1691;52.486;13.374;2024-03-07T05:42:19;60.70;;;31.47;;
3355;SDS011;1691;52.486;13.374;2024-03-07T05:44:46;63.83;;;30.37;;
3355;SDS011;1691;52.486;13.374;2024-03-07T05:47:13;67.70;;;32.07;;
3355;SDS011;1691;52.486;13.374;2024-03-07T05:49:41;61.47;;;31.10;;
3355;SDS011;1691;52.486;13.374;2024-03-07T05:52:08;70.43;;;29.57;;
3355;SDS011;1691;52.486;13.374;2024-03-07T05:54:36;64.07;;;31.33;;
3355;SDS011;1691;52.486;13.374;2024-03-07T05:57:03;110.43;;;51.63;;
3355;SDS011;1691;52.486;13.374;2024-03-07T05:59:33;74.00;;;30.37;;
3355;SDS011;1691;52.486;13.374;2024-03-07T06:02:00;61.77;;;27.70;;
3355;SDS011;1691;52.486;13.374;2024-03-07T06:04:27;64.30;;;27.93;;
3355;SDS011;1691;52.486;13.374;2024-03-07T06:06:55;54.20;;;29.50;;
3355;SDS011;1691;52.486;13.374;2024-03-07T06:09:22;57.60;;;29.57;;
3355;SDS011;1691;52.486;13.374;2024-03-07T06:11:50;65.40;;;27.07;;
3355;SDS011;1691;52.486;13.374;2024-03-07T06:14:18;58.93;;;26.93;;
3355;SDS011;1691;52.486;13.374;2024-03-07T06:16:46;52.40;;;26.77;;
3355;SDS011;1691;52.486;13.374;2024-03-07T06:19:13;47.70;;;25.30;;
3355;SDS011;1691;52.486;13.374;2024-03-07T06:21:40;57.73;;;24.53;;
3355;SDS011;1691;52.486;13.374;2024-03-07T06:24:08;45.97;;;23.83;;
3355;SDS011;1691;52.486;13.374;2024-03-07T06:26:38;45.30;;;24.03;;
3355;SDS011;1691;52.486;13.374;2024-03-07T06:29:15;42.83;;;23.73;;
3355;SDS011;1691;52.486;13.374;2024-03-07T06:31:44;67.67;;;26.00;;
3355;SDS011;1691;52.486;13.374;2024-03-07T06:34:14;39.03;;;22.60;;
3355;SDS011;1691;52.486;13.374;2024-03-07T06:36:43;37.60;;;21.43;;
3355;SDS011;1691;52.486;13.374;2024-03-07T06:39:10;39.40;;;21.17;;
3355;SDS011;1691;52.486;13.374;2024-03-07T06:41:37;35.13;;;21.53;;
3355;SDS011;1691;52.486;13.374;2024-03-07T06:44:05;30.40;;;18.60;;
3355;SDS011;1691;52.486;13.374;2024-03-07T06:46:34;42.53;;;21.90;;
3355;SDS011;1691;52.486;13.374;2024-03-07T06:49:01;39.97;;;19.90;;
3355;SDS011;1691;52.486;13.374;2024-03-07T06:51:28;34.70;;;20.37;;
3355;SDS011;1691;52.486;13.374;2024-03-07T06:53:55;35.90;;;19.77;;
3355;SDS011;1691;52.486;13.374;2024-03-07T06:56:23;31.37;;;19.67;;
3355;SDS011;1691;52.486;13.374;2024-03-07T06:58:51;55.00;;;22.77;;
3355;SDS011;1691;52.486;13.374;2024-03-07T07:01:18;41.47;;;19.03;;
3355;SDS011;1691;52.486;13.374;2024-03-07T07:03:46;36.63;;;19.93;;
3355;SDS011;1691;52.486;13.374;2024-03-07T07:06:15;30.50;;;17.17;;
3355;SDS011;1691;52.486;13.374;2024-03-07T07:08:43;33.40;;;18.20;;
3355;SDS011;1691;52.486;13.374;2024-03-07T07:11:11;26.07;;;16.30;;
3355;SDS011;1691;52.486;13.374;2024-03-07T07:13:39;31.00;;;16.57;;
3355;SDS011;1691;52.486;13.374;2024-03-07T07:16:08;33.17;;;17.40;;
3355;SDS011;1691;52.486;13.374;2024-03-07T07:18:36;26.83;;;16.60;;
3355;SDS011;1691;52.486;13.374;2024-03-07T07:21:05;24.80;;;16.47;;
3355;SDS011;1691;52.486;13.374;2024-03-07T07:23:37;29.57;;;17.10;;
3355;SDS011;1691;52.486;13.374;2024-03-07T07:26:05;28.07;;;18.13;;
3355;SDS011;1691;52.486;13.374;2024-03-07T07:28:32;32.93;;;17.13;;
3355;SDS011;1691;52.486;13.374;2024-03-07T07:30:59;32.77;;;16.67;;
3355;SDS011;1691;52.486;13.374;2024-03-07T07:33:26;27.07;;;16.07;;
3355;SDS011;1691;52.486;13.374;2024-03-07T07:35:53;30.27;;;18.23;;
3355;SDS011;1691;52.486;13.374;2024-03-07T07:38:20;27.00;;;17.87;;
3355;SDS011;1691;52.486;13.374;2024-03-07T07:40:48;34.03;;;16.30;;
3355;SDS011;1691;52.486;13.374;2024-03-07T07:43:16;30.20;;;18.07;;
3355;SDS011;1691;52.486;13.374;2024-03-07T07:45:58;37.83;;;16.50;;
3355;SDS011;1691;52.486;13.374;2024-03-07T07:48:27;22.07;;;15.43;;
3355;SDS011;1691;52.486;13.374;2024-03-07T07:50:54;28.83;;;16.83;;
3355;SDS011;1691;52.486;13.374;2024-03-07T07:53:21;26.60;;;15.03;;
3355;SDS011;1691;52.486;13.374;2024-03-07T07:55:49;29.33;;;16.17;;
3355;SDS011;1691;52.486;13.374;2024-03-07T07:58:17;28.27;;;13.97;;
3355;SDS011;1691;52.486;13.374;2024-03-07T08:00:44;23.80;;;15.60;;
3355;SDS011;1691;52.486;13.374;2024-03-07T08:03:11;30.07;;;15.60;;
3355;SDS011;1691;52.486;13.374;2024-03-07T08:05:40;23.40;;;15.40;;
3355;SDS011;1691;52.486;13.374;2024-03-07T08:08:08;29.20;;;17.77;;
3355;SDS011;1691;52.486;13.374;2024-03-07T08:10:38;21.20;;;15.07;;
3355;SDS011;1691;52.486;13.374;2024-03-07T08:13:10;25.43;;;16.70;;
3355;SDS011;1691;52.486;13.374;2024-03-07T08:15:39;31.70;;;16.30;;
3355;SDS011;1691;52.486;13.374;2024-03-07T08:18:07;24.70;;;17.00;;
3355;SDS011;1691;52.486;13.374;2024-03-07T08:20:38;21.13;;;14.63;;
3355;SDS011;1691;52.486;13.374;2024-03-07T08:23:08;26.07;;;16.40;;
3355;SDS011;1691;52.486;13.374;2024-03-07T08:25:36;25.33;;;16.03;;
3355;SDS011;1691;52.486;13.374;2024-03-07T08:28:06;37.40;;;16.77;;
3355;SDS011;1691;52.486;13.374;2024-03-07T08:30:33;25.10;;;14.30;;
3355;SDS011;1691;52.486;13.374;2024-03-07T08:33:03;23.07;;;16.07;;
3355;SDS011;1691;52.486;13.374;2024-03-07T08:35:32;26.40;;;14.00;;
3355;SDS011;1691;52.486;13.374;2024-03-07T08:38:00;22.83;;;13.97;;
3355;SDS011;1691;52.486;13.374;2024-03-07T08:40:28;24.60;;;15.93;;
3355;SDS011;1691;52.486;13.374;2024-03-07T08:43:01;23.70;;;15.57;;
3355;SDS011;1691;52.486;13.374;2024-03-07T08:45:30;19.67;;;13.77;;
3355;SDS011;1691;52.486;13.374;2024-03-07T08:48:01;21.10;;;14.30;;
3355;SDS011;1691;52.486;13.374;2024-03-07T08:50:34;19.37;;;13.60;;
3355;SDS011;1691;52.486;13.374;2024-03-07T08:53:05;20.93;;;13.47;;
3355;SDS011;1691;52.486;13.374;2024-03-07T08:55:33;24.97;;;14.80;;
3355;SDS011;1691;52.486;13.374;2024-03-07T08:58:03;23.03;;;13.20;;
3355;SDS011;1691;52.486;13.374;2024-03-07T09:00:34;20.33;;;14.40;;
3355;SDS011;1691;52.486;13.374;2024-03-07T09:03:04;23.00;;;14.97;;
3355;SDS011;1691;52.486;13.374;2024-03-07T09:05:37;17.17;;;13.93;;
3355;SDS011;1691;52.486;13.374;2024-03-07T09:08:04;20.17;;;13.83;;
3355;SDS011;1691;52.486;13.374;2024-03-07T09:10:31;20.30;;;13.50;;
3355;SDS011;1691;52.486;13.374;2024-03-07T09:12:59;25.17;;;14.80;;
3355;SDS011;1691;52.486;13.374;2024-03-07T09:15:26;27.07;;;14.20;;
3355;SDS011;1691;52.486;13.374;2024-03-07T09:17:54;19.83;;;13.80;;
3355;SDS011;1691;52.486;13.374;2024-03-07T09:20:22;17.40;;;13.13;;
3355;SDS011;1691;52.486;13.374;2024-03-07T09:22:50;26.90;;;14.57;;
3355;SDS011;1691;52.486;13.374;2024-03-07T09:25:21;19.97;;;15.10;;
3355;SDS011;1691;52.486;13.374;2024-03-07T09:27:49;26.33;;;17.80;;
3355;SDS011;1691;52.486;13.374;2024-03-07T09:30:16;27.27;;;13.10;;
3355;SDS011;1691;52.486;13.374;2024-03-07T09:32:48;17.10;;;13.73;;
3355;SDS011;1691;52.486;13.374;2024-03-07T09:35:15;16.73;;;13.30;;
3355;SDS011;1691;52.486;13.374;2024-03-07T09:37:43;14.70;;;13.17;;
3355;SDS011;1691;52.486;13.374;2024-03-07T09:40:12;21.37;;;13.60;;
3355;SDS011;1691;52.486;13.374;2024-03-07T09:42:44;18.83;;;12.07;;
3355;SDS011;1691;52.486;13.374;2024-03-07T09:45:16;17.47;;;12.90;;
3355;SDS011;1691;52.486;13.374;2024-03-07T09:47:48;18.37;;;12.93;;
3355;SDS011;1691;52.486;13.374;2024-03-07T09:50:20;19.33;;;12.97;;
3355;SDS011;1691;52.486;13.374;2024-03-07T09:52:50;16.20;;;11.53;;
3355;SDS011;1691;52.486;13.374;2024-03-07T09:55:20;14.27;;;11.40;;
3355;SDS011;1691;52.486;13.374;2024-03-07T09:57:52;18.73;;;11.70;;
3355;SDS011;1691;52.486;13.374;2024-03-07T10:00:23;18.70;;;12.00;;
3355;SDS011;1691;52.486;13.374;2024-03-07T10:05:39;11.93;;;10.17;;
3355;SDS011;1691;52.486;13.374;2024-03-07T10:08:08;23.57;;;11.87;;
3355;SDS011;1691;52.486;13.374;2024-03-07T10:10:37;25.63;;;11.17;;
3355;SDS011;1691;52.486;13.374;2024-03-07T10:13:04;14.87;;;10.23;;
3355;SDS011;1691;52.486;13.374;2024-03-07T10:15:32;12.87;;;10.53;;
3355;SDS011;1691;52.486;13.374;2024-03-07T10:18:01;19.93;;;12.40;;
3355;SDS011;1691;52.486;13.374;2024-03-07T10:20:30;31.97;;;11.70;;
3355;SDS011;1691;52.486;13.374;2024-03-07T10:22:57;15.03;;;10.80;;
3355;SDS011;1691;52.486;13.374;2024-03-07T10:25:24;16.23;;;9.20;;
3355;SDS011;1691;52.486;13.374;2024-03-07T10:27:55;12.50;;;9.90;;
3355;SDS011;1691;52.486;13.374;2024-03-07T10:30:24;15.60;;;10.07;;
3355;SDS011;1691;52.486;13.374;2024-03-07T10:32:54;12.60;;;10.80;;
3355;SDS011;1691;52.486;13.374;2024-03-07T10:35:27;19.97;;;11.40;;
3355;SDS011;1691;52.486;13.374;2024-03-07T10:37:56;20.43;;;10.80;;
3355;SDS011;1691;52.486;13.374;2024-03-07T10:40:28;17.33;;;10.97;;
3355;SDS011;1691;52.486;13.374;2024-03-07T10:42:57;14.27;;;11.30;;
3355;SDS011;1691;52.486;13.374;2024-03-07T10:45:29;15.03;;;10.17;;
3355;SDS011;1691;52.486;13.374;2024-03-07T10:48:01;14.70;;;11.07;;
3355;SDS011;1691;52.486;13.374;2024-03-07T10:53:21;23.33;;;8.77;;
3355;SDS011;1691;52.486;13.374;2024-03-07T10:58:37;13.23;;;10.20;;
3355;SDS011;1691;52.486;13.374;2024-03-07T11:01:19;25.73;;;11.80;;
3355;SDS011;1691;52.486;13.374;2024-03-07T11:03:49;12.80;;;10.07;;
3355;SDS011;1691;52.486;13.374;2024-03-07T11:06:19;16.37;;;10.83;;
3355;SDS011;1691;52.486;13.374;2024-03-07T11:08:46;22.13;;;11.73;;
3355;SDS011;1691;52.486;13.374;2024-03-07T11:11:14;11.97;;;10.70;;
3355;SDS011;1691;52.486;13.374;2024-03-07T11:13:41;11.10;;;9.57;;
3355;SDS011;1691;52.486;13.374;2024-03-07T11:16:08;13.23;;;9.60;;
3355;SDS011;1691;52.486;13.374;2024-03-07T11:18:36;20.00;;;11.30;;
3355;SDS011;1691;52.486;13.374;2024-03-07T11:21:03;13.67;;;11.50;;
3355;SDS011;1691;52.486;13.374;2024-03-07T11:23:34;17.10;;;12.20;;
3355;SDS011;1691;52.486;13.374;2024-03-07T11:26:05;19.47;;;12.67;;
3355;SDS011;1691;52.486;13.374;2024-03-07T11:28:38;20.47;;;12.63;;
3355;SDS011;1691;52.486;13.374;2024-03-07T11:31:08;15.80;;;11.30;;
3355;SDS011;1691;52.486;13.374;2024-03-07T11:33:39;13.73;;;11.20;;
3355;SDS011;1691;52.486;13.374;2024-03-07T11:36:08;18.83;;;12.17;;
3355;SDS011;1691;52.486;13.374;2024-03-07T11:38:47;13.77;;;10.40;;
3355;SDS011;1691;52.486;13.374;2024-03-07T11:41:21;15.10;;;10.50;;
3355;SDS011;1691;52.486;13.374;2024-03-07T11:43:49;16.47;;;11.97;;
3355;SDS011;1691;52.486;13.374;2024-03-07T11:46:21;14.80;;;11.17;;
3355;SDS011;1691;52.486;13.374;2024-03-07T11:48:50;14.33;;;10.67;;
3355;SDS011;1691;52.486;13.374;2024-03-07T11:51:20;16.03;;;11.83;;
3355;SDS011;1691;52.486;13.374;2024-03-07T11:53:51;16.53;;;10.70;;
3355;SDS011;1691;52.486;13.374;2024-03-07T11:56:22;15.90;;;10.83;;
3355;SDS011;1691;52.486;13.374;2024-03-07T11:58:49;12.07;;;10.80;;
3355;SDS011;1691;52.486;13.374;2024-03-07T12:01:21;15.53;;;10.80;;
3355;SDS011;1691;52.486;13.374;2024-03-07T12:03:52;19.63;;;10.60;;
3355;SDS011;1691;52.486;13.374;2024-03-07T12:06:22;13.90;;;12.10;;
3355;SDS011;1691;52.486;13.374;2024-03-07T12:08:49;13.60;;;10.90;;
3355;SDS011;1691;52.486;13.374;2024-03-07T12:11:17;15.37;;;12.60;;
3355;SDS011;1691;52.486;13.374;2024-03-07T12:13:44;22.93;;;12.73;;
3355;SDS011;1691;52.486;13.374;2024-03-07T12:16:12;18.40;;;11.73;;
3355;SDS011;1691;52.486;13.374;2024-03-07T12:18:39;29.80;;;13.67;;
3355;SDS011;1691;52.486;13.374;2024-03-07T12:21:09;17.60;;;12.27;;
3355;SDS011;1691;52.486;13.374;2024-03-07T12:23:38;18.13;;;12.43;;
3355;SDS011;1691;52.486;13.374;2024-03-07T12:26:06;23.90;;;12.60;;
3355;SDS011;1691;52.486;13.374;2024-03-07T12:28:34;16.47;;;11.73;;
3355;SDS011;1691;52.486;13.374;2024-03-07T12:31:02;15.73;;;12.27;;
3355;SDS011;1691;52.486;13.374;2024-03-07T12:33:31;17.37;;;12.37;;
3355;SDS011;1691;52.486;13.374;2024-03-07T12:36:06;15.50;;;11.53;;
3355;SDS011;1691;52.486;13.374;2024-03-07T12:38:34;13.57;;;10.83;;
3355;SDS011;1691;52.486;13.374;2024-03-07T12:41:09;13.53;;;11.37;;
3355;SDS011;1691;52.486;13.374;2024-03-07T12:43:42;19.70;;;11.90;;
3355;SDS011;1691;52.486;13.374;2024-03-07T12:46:12;14.37;;;11.63;;
3355;SDS011;1691;52.486;13.374;2024-03-07T12:48:41;17.23;;;11.67;;
3355;SDS011;1691;52.486;13.374;2024-03-07T12:51:11;17.70;;;11.80;;
3355;SDS011;1691;52.486;13.374;2024-03-07T12:53:44;17.43;;;11.07;;
3355;SDS011;1691;52.486;13.374;2024-03-07T12:56:13;14.17;;;11.83;;
3355;SDS011;1691;52.486;13.374;2024-03-07T12:58:46;18.10;;;13.47;;
3355;SDS011;1691;52.486;13.374;2024-03-07T13:01:16;15.73;;;12.67;;
3355;SDS011;1691;52.486;13.374;2024-03-07T13:03:46;22.97;;;13.77;;
3355;SDS011;1691;52.486;13.374;2024-03-07T13:06:14;19.80;;;12.10;;
3355;SDS011;1691;52.486;13.374;2024-03-07T13:08:42;25.63;;;14.27;;
3355;SDS011;1691;52.486;13.374;2024-03-07T13:11:10;17.80;;;12.33;;
3355;SDS011;1691;52.486;13.374;2024-03-07T13:13:38;18.10;;;13.23;;
3355;SDS011;1691;52.486;13.374;2024-03-07T13:16:05;17.33;;;12.80;;
3355;SDS011;1691;52.486;13.374;2024-03-07T13:18:33;18.50;;;12.63;;
3355;SDS011;1691;52.486;13.374;2024-03-07T13:21:01;14.80;;;12.13;;
3355;SDS011;1691;52.486;13.374;2024-03-07T13:23:31;23.03;;;13.60;;
3355;SDS011;1691;52.486;13.374;2024-03-07T13:26:01;18.70;;;12.63;;
3355;SDS011;1691;52.486;13.374;2024-03-07T13:28:34;19.53;;;14.93;;
3355;SDS011;1691;52.486;13.374;2024-03-07T13:31:01;22.40;;;14.33;;
3355;SDS011;1691;52.486;13.374;2024-03-07T13:33:30;25.53;;;13.30;;
3355;SDS011;1691;52.486;13.374;2024-03-07T13:35:57;13.57;;;8.80;;
3355;SDS011;1691;52.486;13.374;2024-03-07T13:38:24;15.47;;;12.17;;
3355;SDS011;1691;52.486;13.374;2024-03-07T13:40:52;14.87;;;11.50;;
3355;SDS011;1691;52.486;13.374;2024-03-07T13:43:19;13.43;;;9.20;;
3355;SDS011;1691;52.486;13.374;2024-03-07T13:45:46;14.13;;;11.90;;
3355;SDS011;1691;52.486;13.374;2024-03-07T13:48:15;18.97;;;11.50;;
3355;SDS011;1691;52.486;13.374;2024-03-07T13:50:45;17.63;;;12.50;;
3355;SDS011;1691;52.486;13.374;2024-03-07T13:53:26;15.90;;;10.87;;
3355;SDS011;1691;52.486;13.374;2024-03-07T14:32:49;22.90;;;12.63;;
3355;SDS011;1691;52.486;13.374;2024-03-07T14:35:22;17.20;;;11.77;;
3355;SDS011;1691;52.486;13.374;2024-03-07T14:38:02;19.63;;;12.00;;
3355;SDS011;1691;52.486;13.374;2024-03-07T14:40:41;16.80;;;12.07;;
3355;SDS011;1691;52.486;13.374;2024-03-07T14:43:10;19.20;;;13.87;;
3355;SDS011;1691;52.486;13.374;2024-03-07T14:45:39;22.60;;;13.80;;
3355;SDS011;1691;52.486;13.374;2024-03-07T14:48:07;21.00;;;12.83;;
3355;SDS011;1691;52.486;13.374;2024-03-07T14:50:37;15.77;;;12.00;;
3355;SDS011;1691;52.486;13.374;2024-03-07T14:53:07;15.47;;;12.10;;
3355;SDS011;1691;52.486;13.374;2024-03-07T14:55:35;17.50;;;12.53;;
3355;SDS011;1691;52.486;13.374;2024-03-07T14:58:04;15.00;;;12.00;;
3355;SDS011;1691;52.486;13.374;2024-03-07T15:00:32;15.00;;;10.87;;
3355;SDS011;1691;52.486;13.374;2024-03-07T15:03:11;22.60;;;13.80;;
3355;SDS011;1691;52.486;13.374;2024-03-07T15:05:42;15.53;;;11.67;;
3355;SDS011;1691;52.486;13.374;2024-03-07T15:08:13;20.73;;;12.10;;
3355;SDS011;1691;52.486;13.374;2024-03-07T15:10:44;14.50;;;11.80;;
3355;SDS011;1691;52.486;13.374;2024-03-07T15:13:40;19.63;;;13.13;;
3355;SDS011;1691;52.486;13.374;2024-03-07T15:16:09;20.20;;;13.23;;
3355;SDS011;1691;52.486;13.374;2024-03-07T15:18:55;16.33;;;11.83;;
3355;SDS011;1691;52.486;13.374;2024-03-07T15:21:21;15.90;;;11.27;;
3355;SDS011;1691;52.486;13.374;2024-03-07T15:23:49;23.73;;;13.97;;
3355;SDS011;1691;52.486;13.374;2024-03-07T15:26:16;21.00;;;12.20;;